sensor_id;sensor_type;location;lat;lon;timestamp;P1;durP1;ratioP1;P2;durP2;ratioP2
46158;SDS011;31888;44.512;26.104;2023-07-20T00:01:12;21.65;;;10.63;;
46158;SDS011;31888;44.512;26.104;2023-07-20T00:03:53;18.63;;;11.20;;
46158;SDS011;31888;44.512;26.104;2023-07-20T00:06:17;14.50;;;10.18;;
46158;SDS011;31888;44.512;26.104;2023-07-20T00:08:41;17.20;;;11.38;;
46158;SDS011;31888;44.512;26.104;2023-07-20T00:11:05;21.77;;;11.32;;
46158;SDS011;31888;44.512;26.104;2023-07-20T00:13:29;22.42;;;11.00;;
46158;SDS011;31888;44.512;26.104;2023-07-20T00:15:54;24.70;;;11.18;;
46158;SDS011;31888;44.512;26.104;2023-07-20T00:18:18;17.00;;;12.40;;
46158;SDS011;31888;44.512;26.104;2023-07-20T00:20:43;22.25;;;11.65;;
46158;SDS011;31888;44.512;26.104;2023-07-20T00:23:06;23.63;;;11.15;;
46158;SDS011;31888;44.512;26.104;2023-07-20T00:25:30;30.30;;;11.90;;
46158;SDS011;31888;44.512;26.104;2023-07-20T00:27:55;17.83;;;11.00;;
46158;SDS011;31888;44.512;26.104;2023-07-20T00:30:19;19.88;;;11.38;;
46158;SDS011;31888;44.512;26.104;2023-07-20T00:32:44;19.90;;;11.45;;
46158;SDS011;31888;44.512;26.104;2023-07-20T00:35:08;24.63;;;12.18;;
46158;SDS011;31888;44.512;26.104;2023-07-20T00:37:32;21.70;;;13.35;;
46158;SDS011;31888;44.512;26.104;2023-07-20T00:39:56;40.63;;;15.30;;
46158;SDS011;31888;44.512;26.104;2023-07-20T00:42:20;30.75;;;14.52;;
46158;SDS011;31888;44.512;26.104;2023-07-20T00:44:46;30.23;;;13.52;;
46158;SDS011;31888;44.512;26.104;2023-07-20T00:47:09;27.30;;;13.07;;
46158;SDS011;31888;44.512;26.104;2023-07-20T00:49:35;24.70;;;13.00;;
46158;SDS011;31888;44.512;26.104;2023-07-20T00:51:59;21.00;;;13.10;;
46158;SDS011;31888;44.512;26.104;2023-07-20T00:54:24;23.77;;;13.75;;
46158;SDS011;31888;44.512;26.104;2023-07-20T00:56:48;20.23;;;14.27;;
46158;SDS011;31888;44.512;26.104;2023-07-20T00:59:13;28.75;;;16.00;;
46158;SDS011;31888;44.512;26.104;2023-07-20T01:01:37;27.20;;;16.80;;
46158;SDS011;31888;44.512;26.104;2023-07-20T01:04:01;29.55;;;15.32;;
46158;SDS011;31888;44.512;26.104;2023-07-20T01:06:29;24.23;;;16.08;;
46158;SDS011;31888;44.512;26.104;2023-07-20T01:09:02;25.48;;;15.48;;
46158;SDS011;31888;44.512;26.104;2023-07-20T01:11:36;22.25;;;15.95;;
46158;SDS011;31888;44.512;26.104;2023-07-20T01:14:06;24.05;;;16.17;;
46158;SDS011;31888;44.512;26.104;2023-07-20T01:16:30;30.65;;;17.55;;
46158;SDS011;31888;44.512;26.104;2023-07-20T01:18:55;29.60;;;17.48;;
46158;SDS011;31888;44.512;26.104;2023-07-20T01:21:21;27.48;;;17.95;;
46158;SDS011;31888;44.512;26.104;2023-07-20T01:23:56;30.10;;;18.00;;
46158;SDS011;31888;44.512;26.104;2023-07-20T01:26:50;27.02;;;19.50;;
46158;SDS011;31888;44.512;26.104;2023-07-20T01:29:54;28.67;;;19.80;;
46158;SDS011;31888;44.512;26.104;2023-07-20T01:32:32;25.05;;;19.42;;
46158;SDS011;31888;44.512;26.104;2023-07-20T01:34:57;34.10;;;20.40;;
46158;SDS011;31888;44.512;26.104;2023-07-20T01:37:22;28.23;;;19.33;;
46158;SDS011;31888;44.512;26.104;2023-07-20T01:39:49;32.30;;;20.23;;
46158;SDS011;31888;44.512;26.104;2023-07-20T01:42:17;30.02;;;21.00;;
46158;SDS011;31888;44.512;26.104;2023-07-20T01:44:40;35.58;;;21.75;;
46158;SDS011;31888;44.512;26.104;2023-07-20T01:47:05;29.35;;;20.75;;
46158;SDS011;31888;44.512;26.104;2023-07-20T01:49:31;31.23;;;19.90;;
46158;SDS011;31888;44.512;26.104;2023-07-20T01:51:54;27.95;;;20.77;;
46158;SDS011;31888;44.512;26.104;2023-07-20T01:54:18;25.83;;;19.90;;
46158;SDS011;31888;44.512;26.104;2023-07-20T01:56:43;28.95;;;20.27;;
46158;SDS011;31888;44.512;26.104;2023-07-20T01:59:07;32.08;;;20.13;;
46158;SDS011;31888;44.512;26.104;2023-07-20T02:01:30;29.00;;;20.10;;
46158;SDS011;31888;44.512;26.104;2023-07-20T02:03:55;32.42;;;19.80;;
46158;SDS011;31888;44.512;26.104;2023-07-20T02:06:20;27.25;;;19.00;;
46158;SDS011;31888;44.512;26.104;2023-07-20T02:08:45;29.15;;;19.17;;
46158;SDS011;31888;44.512;26.104;2023-07-20T02:11:09;31.33;;;18.85;;
46158;SDS011;31888;44.512;26.104;2023-07-20T02:13:33;31.70;;;20.40;;
46158;SDS011;31888;44.512;26.104;2023-07-20T02:15:58;26.75;;;20.35;;
46158;SDS011;31888;44.512;26.104;2023-07-20T02:18:21;33.08;;;20.80;;
46158;SDS011;31888;44.512;26.104;2023-07-20T02:20:45;27.73;;;19.60;;
46158;SDS011;31888;44.512;26.104;2023-07-20T02:23:11;32.30;;;23.85;;
46158;SDS011;31888;44.512;26.104;2023-07-20T02:25:35;29.10;;;21.13;;
46158;SDS011;31888;44.512;26.104;2023-07-20T02:27:58;26.33;;;21.08;;
46158;SDS011;31888;44.512;26.104;2023-07-20T02:30:22;30.13;;;21.90;;
46158;SDS011;31888;44.512;26.104;2023-07-20T02:32:46;29.65;;;22.85;;
46158;SDS011;31888;44.512;26.104;2023-07-20T02:35:11;28.90;;;20.38;;
46158;SDS011;31888;44.512;26.104;2023-07-20T02:37:34;32.42;;;21.95;;
46158;SDS011;31888;44.512;26.104;2023-07-20T02:40:00;29.50;;;21.27;;
46158;SDS011;31888;44.512;26.104;2023-07-20T02:42:25;33.22;;;22.55;;
46158;SDS011;31888;44.512;26.104;2023-07-20T02:44:49;31.67;;;22.00;;
46158;SDS011;31888;44.512;26.104;2023-07-20T02:47:13;30.05;;;21.75;;
46158;SDS011;31888;44.512;26.104;2023-07-20T02:49:37;33.75;;;23.50;;
46158;SDS011;31888;44.512;26.104;2023-07-20T02:52:01;31.63;;;23.10;;
46158;SDS011;31888;44.512;26.104;2023-07-20T02:54:25;32.83;;;21.25;;
46158;SDS011;31888;44.512;26.104;2023-07-20T02:56:50;33.42;;;23.13;;
46158;SDS011;31888;44.512;26.104;2023-07-20T02:59:14;30.95;;;22.00;;
46158;SDS011;31888;44.512;26.104;2023-07-20T03:01:37;31.92;;;21.25;;
46158;SDS011;31888;44.512;26.104;2023-07-20T03:04:04;29.02;;;20.80;;
46158;SDS011;31888;44.512;26.104;2023-07-20T03:06:31;31.60;;;21.13;;
46158;SDS011;31888;44.512;26.104;2023-07-20T03:08:58;31.38;;;20.30;;
46158;SDS011;31888;44.512;26.104;2023-07-20T03:11:21;26.63;;;19.90;;
46158;SDS011;31888;44.512;26.104;2023-07-20T03:13:47;26.00;;;18.52;;
46158;SDS011;31888;44.512;26.104;2023-07-20T03:16:12;26.05;;;18.55;;
46158;SDS011;31888;44.512;26.104;2023-07-20T03:18:39;26.30;;;18.88;;
46158;SDS011;31888;44.512;26.104;2023-07-20T03:21:03;30.20;;;18.27;;
46158;SDS011;31888;44.512;26.104;2023-07-20T03:23:27;21.65;;;16.70;;
46158;SDS011;31888;44.512;26.104;2023-07-20T03:25:51;26.40;;;17.42;;
46158;SDS011;31888;44.512;26.104;2023-07-20T03:28:17;20.67;;;14.52;;
46158;SDS011;31888;44.512;26.104;2023-07-20T03:30:42;28.40;;;16.15;;
46158;SDS011;31888;44.512;26.104;2023-07-20T03:33:07;22.58;;;15.93;;
46158;SDS011;31888;44.512;26.104;2023-07-20T03:35:30;18.98;;;15.88;;
46158;SDS011;31888;44.512;26.104;2023-07-20T03:37:54;22.02;;;14.88;;
46158;SDS011;31888;44.512;26.104;2023-07-20T03:40:19;23.02;;;14.65;;
46158;SDS011;31888;44.512;26.104;2023-07-20T03:42:43;23.23;;;14.95;;
46158;SDS011;31888;44.512;26.104;2023-07-20T03:45:08;23.00;;;15.20;;
46158;SDS011;31888;44.512;26.104;2023-07-20T03:47:33;22.05;;;16.67;;
46158;SDS011;31888;44.512;26.104;2023-07-20T03:49:57;21.30;;;15.10;;
46158;SDS011;31888;44.512;26.104;2023-07-20T03:52:21;24.92;;;15.05;;
46158;SDS011;31888;44.512;26.104;2023-07-20T03:54:45;28.38;;;17.20;;
46158;SDS011;31888;44.512;26.104;2023-07-20T03:57:09;26.88;;;15.40;;
46158;SDS011;31888;44.512;26.104;2023-07-20T03:59:33;22.92;;;16.65;;
46158;SDS011;31888;44.512;26.104;2023-07-20T04:01:57;23.58;;;15.88;;
46158;SDS011;31888;44.512;26.104;2023-07-20T04:04:22;28.50;;;16.75;;
46158;SDS011;31888;44.512;26.104;2023-07-20T04:06:46;24.92;;;15.02;;
46158;SDS011;31888;44.512;26.104;2023-07-20T04:09:11;26.80;;;15.85;;
46158;SDS011;31888;44.512;26.104;2023-07-20T04:11:35;27.58;;;15.75;;
46158;SDS011;31888;44.512;26.104;2023-07-20T04:13:59;26.95;;;15.40;;
46158;SDS011;31888;44.512;26.104;2023-07-20T04:16:22;24.40;;;16.65;;
46158;SDS011;31888;44.512;26.104;2023-07-20T04:18:47;28.92;;;16.08;;
46158;SDS011;31888;44.512;26.104;2023-07-20T04:21:12;29.35;;;15.43;;
46158;SDS011;31888;44.512;26.104;2023-07-20T04:23:36;19.48;;;14.38;;
46158;SDS011;31888;44.512;26.104;2023-07-20T04:26:00;21.58;;;14.80;;
46158;SDS011;31888;44.512;26.104;2023-07-20T04:28:24;23.95;;;15.05;;
46158;SDS011;31888;44.512;26.104;2023-07-20T04:30:48;25.08;;;13.45;;
46158;SDS011;31888;44.512;26.104;2023-07-20T04:33:14;27.23;;;13.10;;
46158;SDS011;31888;44.512;26.104;2023-07-20T04:35:46;21.75;;;12.02;;
46158;SDS011;31888;44.512;26.104;2023-07-20T04:38:22;17.08;;;11.48;;
46158;SDS011;31888;44.512;26.104;2023-07-20T04:40:56;20.30;;;11.85;;
46158;SDS011;31888;44.512;26.104;2023-07-20T04:43:20;17.15;;;10.82;;
46158;SDS011;31888;44.512;26.104;2023-07-20T04:45:44;20.42;;;10.95;;
46158;SDS011;31888;44.512;26.104;2023-07-20T04:48:09;18.23;;;11.13;;
46158;SDS011;31888;44.512;26.104;2023-07-20T04:50:40;19.77;;;10.30;;
46158;SDS011;31888;44.512;26.104;2023-07-20T04:53:04;24.35;;;11.05;;
46158;SDS011;31888;44.512;26.104;2023-07-20T04:55:29;16.02;;;10.43;;
46158;SDS011;31888;44.512;26.104;2023-07-20T04:57:56;20.48;;;11.00;;
46158;SDS011;31888;44.512;26.104;2023-07-20T05:00:20;19.88;;;10.50;;
46158;SDS011;31888;44.512;26.104;2023-07-20T05:02:44;19.38;;;11.68;;
46158;SDS011;31888;44.512;26.104;2023-07-20T05:05:09;19.80;;;12.00;;
46158;SDS011;31888;44.512;26.104;2023-07-20T05:07:33;21.00;;;12.43;;
46158;SDS011;31888;44.512;26.104;2023-07-20T05:09:57;18.13;;;10.90;;
46158;SDS011;31888;44.512;26.104;2023-07-20T05:12:22;25.20;;;11.75;;
46158;SDS011;31888;44.512;26.104;2023-07-20T05:14:46;19.75;;;11.80;;
46158;SDS011;31888;44.512;26.104;2023-07-20T05:17:10;20.08;;;11.57;;
46158;SDS011;31888;44.512;26.104;2023-07-20T05:19:34;24.92;;;12.13;;
46158;SDS011;31888;44.512;26.104;2023-07-20T05:21:58;20.38;;;10.32;;
46158;SDS011;31888;44.512;26.104;2023-07-20T05:24:22;15.00;;;10.57;;
46158;SDS011;31888;44.512;26.104;2023-07-20T05:26:45;20.67;;;10.23;;
46158;SDS011;31888;44.512;26.104;2023-07-20T05:29:11;25.13;;;10.73;;
46158;SDS011;31888;44.512;26.104;2023-07-20T05:31:34;18.73;;;10.05;;
46158;SDS011;31888;44.512;26.104;2023-07-20T05:33:58;17.92;;;9.90;;
46158;SDS011;31888;44.512;26.104;2023-07-20T05:36:22;15.25;;;9.93;;
46158;SDS011;31888;44.512;26.104;2023-07-20T05:38:47;15.00;;;8.48;;
46158;SDS011;31888;44.512;26.104;2023-07-20T05:41:11;16.75;;;8.35;;
46158;SDS011;31888;44.512;26.104;2023-07-20T05:43:35;18.80;;;8.10;;
46158;SDS011;31888;44.512;26.104;2023-07-20T05:46:00;16.38;;;7.38;;
46158;SDS011;31888;44.512;26.104;2023-07-20T05:48:24;14.23;;;7.30;;
46158;SDS011;31888;44.512;26.104;2023-07-20T05:50:48;10.30;;;6.70;;
46158;SDS011;31888;44.512;26.104;2023-07-20T05:53:11;11.57;;;7.10;;
46158;SDS011;31888;44.512;26.104;2023-07-20T05:55:35;14.55;;;6.63;;
46158;SDS011;31888;44.512;26.104;2023-07-20T05:58:00;15.13;;;6.72;;
46158;SDS011;31888;44.512;26.104;2023-07-20T06:00:26;17.33;;;6.78;;
46158;SDS011;31888;44.512;26.104;2023-07-20T06:02:51;15.02;;;6.78;;
46158;SDS011;31888;44.512;26.104;2023-07-20T06:05:15;8.52;;;6.80;;
46158;SDS011;31888;44.512;26.104;2023-07-20T06:07:39;15.30;;;8.13;;
46158;SDS011;31888;44.512;26.104;2023-07-20T06:10:03;13.80;;;6.68;;
46158;SDS011;31888;44.512;26.104;2023-07-20T06:12:28;13.45;;;7.65;;
46158;SDS011;31888;44.512;26.104;2023-07-20T06:14:52;19.40;;;6.90;;
46158;SDS011;31888;44.512;26.104;2023-07-20T06:17:16;15.80;;;6.80;;
46158;SDS011;31888;44.512;26.104;2023-07-20T06:19:41;14.80;;;6.78;;
46158;SDS011;31888;44.512;26.104;2023-07-20T06:22:05;10.32;;;6.38;;
46158;SDS011;31888;44.512;26.104;2023-07-20T06:24:29;13.13;;;5.93;;
46158;SDS011;31888;44.512;26.104;2023-07-20T06:26:53;23.35;;;7.05;;
46158;SDS011;31888;44.512;26.104;2023-07-20T06:29:16;10.63;;;6.22;;
46158;SDS011;31888;44.512;26.104;2023-07-20T06:31:41;12.07;;;5.70;;
46158;SDS011;31888;44.512;26.104;2023-07-20T06:34:04;13.57;;;5.97;;
46158;SDS011;31888;44.512;26.104;2023-07-20T06:36:30;11.48;;;5.85;;
46158;SDS011;31888;44.512;26.104;2023-07-20T06:38:53;14.35;;;6.40;;
46158;SDS011;31888;44.512;26.104;2023-07-20T06:41:20;11.60;;;6.18;;
46158;SDS011;31888;44.512;26.104;2023-07-20T06:43:47;10.43;;;6.20;;
46158;SDS011;31888;44.512;26.104;2023-07-20T06:46:11;12.02;;;7.03;;
46158;SDS011;31888;44.512;26.104;2023-07-20T06:48:35;14.10;;;6.53;;
46158;SDS011;31888;44.512;26.104;2023-07-20T06:51:18;17.50;;;6.90;;
46158;SDS011;31888;44.512;26.104;2023-07-20T06:53:44;10.98;;;7.07;;
46158;SDS011;31888;44.512;26.104;2023-07-20T06:56:08;11.23;;;6.68;;
46158;SDS011;31888;44.512;26.104;2023-07-20T06:58:33;13.43;;;7.07;;
46158;SDS011;31888;44.512;26.104;2023-07-20T07:00:57;10.80;;;5.97;;
46158;SDS011;31888;44.512;26.104;2023-07-20T07:03:20;10.80;;;6.35;;
46158;SDS011;31888;44.512;26.104;2023-07-20T07:05:50;10.07;;;5.93;;
46158;SDS011;31888;44.512;26.104;2023-07-20T07:08:18;12.10;;;6.90;;
46158;SDS011;31888;44.512;26.104;2023-07-20T07:10:43;17.98;;;7.10;;
46158;SDS011;31888;44.512;26.104;2023-07-20T07:13:07;10.30;;;7.47;;
46158;SDS011;31888;44.512;26.104;2023-07-20T07:15:30;15.95;;;7.00;;
46158;SDS011;31888;44.512;26.104;2023-07-20T07:17:54;11.52;;;7.13;;
46158;SDS011;31888;44.512;26.104;2023-07-20T07:20:19;10.75;;;6.47;;
46158;SDS011;31888;44.512;26.104;2023-07-20T07:22:43;12.25;;;6.82;;
46158;SDS011;31888;44.512;26.104;2023-07-20T07:25:08;12.43;;;7.45;;
46158;SDS011;31888;44.512;26.104;2023-07-20T07:27:34;16.10;;;6.93;;
46158;SDS011;31888;44.512;26.104;2023-07-20T07:29:58;13.80;;;8.07;;
46158;SDS011;31888;44.512;26.104;2023-07-20T07:32:21;13.25;;;8.15;;
46158;SDS011;31888;44.512;26.104;2023-07-20T07:34:45;13.18;;;7.55;;
46158;SDS011;31888;44.512;26.104;2023-07-20T07:37:10;18.05;;;7.35;;
46158;SDS011;31888;44.512;26.104;2023-07-20T07:39:34;9.75;;;6.93;;
46158;SDS011;31888;44.512;26.104;2023-07-20T07:41:58;14.52;;;7.65;;
46158;SDS011;31888;44.512;26.104;2023-07-20T07:44:23;9.13;;;7.15;;
46158;SDS011;31888;44.512;26.104;2023-07-20T07:46:47;13.82;;;7.13;;
46158;SDS011;31888;44.512;26.104;2023-07-20T07:49:15;12.68;;;7.07;;
46158;SDS011;31888;44.512;26.104;2023-07-20T07:51:40;10.40;;;6.32;;
46158;SDS011;31888;44.512;26.104;2023-07-20T07:54:04;8.57;;;5.78;;
46158;SDS011;31888;44.512;26.104;2023-07-20T07:56:28;11.32;;;6.05;;
46158;SDS011;31888;44.512;26.104;2023-07-20T07:58:52;19.98;;;6.68;;
46158;SDS011;31888;44.512;26.104;2023-07-20T08:01:17;9.68;;;6.45;;
46158;SDS011;31888;44.512;26.104;2023-07-20T08:03:42;9.80;;;6.22;;
46158;SDS011;31888;44.512;26.104;2023-07-20T08:06:07;8.55;;;5.50;;
46158;SDS011;31888;44.512;26.104;2023-07-20T08:08:31;10.32;;;5.30;;
46158;SDS011;31888;44.512;26.104;2023-07-20T08:10:55;11.82;;;5.90;;
46158;SDS011;31888;44.512;26.104;2023-07-20T08:13:19;10.52;;;6.20;;
46158;SDS011;31888;44.512;26.104;2023-07-20T08:15:50;9.43;;;5.57;;
46158;SDS011;31888;44.512;26.104;2023-07-20T08:18:16;14.63;;;6.55;;
46158;SDS011;31888;44.512;26.104;2023-07-20T08:20:43;9.15;;;5.75;;
46158;SDS011;31888;44.512;26.104;2023-07-20T08:23:07;11.13;;;5.60;;
46158;SDS011;31888;44.512;26.104;2023-07-20T08:25:31;7.80;;;6.18;;
46158;SDS011;31888;44.512;26.104;2023-07-20T08:27:55;9.90;;;6.07;;
46158;SDS011;31888;44.512;26.104;2023-07-20T08:30:20;13.10;;;6.60;;
46158;SDS011;31888;44.512;26.104;2023-07-20T08:32:45;7.53;;;5.75;;
46158;SDS011;31888;44.512;26.104;2023-07-20T08:35:10;9.25;;;6.28;;
46158;SDS011;31888;44.512;26.104;2023-07-20T08:37:37;8.60;;;5.63;;
46158;SDS011;31888;44.512;26.104;2023-07-20T08:40:01;9.73;;;6.10;;
46158;SDS011;31888;44.512;26.104;2023-07-20T08:42:30;19.63;;;7.07;;
46158;SDS011;31888;44.512;26.104;2023-07-20T08:44:54;11.77;;;6.97;;
46158;SDS011;31888;44.512;26.104;2023-07-20T08:47:19;14.10;;;6.95;;
46158;SDS011;31888;44.512;26.104;2023-07-20T08:49:45;15.85;;;7.00;;
46158;SDS011;31888;44.512;26.104;2023-07-20T08:52:13;15.85;;;6.78;;
46158;SDS011;31888;44.512;26.104;2023-07-20T08:54:37;16.55;;;7.07;;
46158;SDS011;31888;44.512;26.104;2023-07-20T08:57:02;13.60;;;6.95;;
46158;SDS011;31888;44.512;26.104;2023-07-20T08:59:28;13.65;;;7.25;;
46158;SDS011;31888;44.512;26.104;2023-07-20T09:01:52;11.73;;;6.95;;
46158;SDS011;31888;44.512;26.104;2023-07-20T09:04:18;16.23;;;7.72;;
46158;SDS011;31888;44.512;26.104;2023-07-20T09:06:42;11.40;;;6.95;;
46158;SDS011;31888;44.512;26.104;2023-07-20T09:09:08;11.93;;;7.70;;
46158;SDS011;31888;44.512;26.104;2023-07-20T09:11:33;13.90;;;7.47;;
46158;SDS011;31888;44.512;26.104;2023-07-20T09:14:03;11.60;;;7.15;;
46158;SDS011;31888;44.512;26.104;2023-07-20T09:16:27;14.57;;;6.70;;
46158;SDS011;31888;44.512;26.104;2023-07-20T09:18:51;16.08;;;7.40;;
46158;SDS011;31888;44.512;26.104;2023-07-20T09:21:15;12.02;;;6.72;;
46158;SDS011;31888;44.512;26.104;2023-07-20T09:23:40;9.90;;;6.60;;
46158;SDS011;31888;44.512;26.104;2023-07-20T09:26:10;11.02;;;7.00;;
46158;SDS011;31888;44.512;26.104;2023-07-20T09:28:36;12.85;;;6.60;;
46158;SDS011;31888;44.512;26.104;2023-07-20T09:31:15;10.48;;;7.25;;
46158;SDS011;31888;44.512;26.104;2023-07-20T09:33:40;10.38;;;6.32;;
46158;SDS011;31888;44.512;26.104;2023-07-20T09:36:22;15.18;;;6.78;;
46158;SDS011;31888;44.512;26.104;2023-07-20T09:39:06;12.32;;;7.32;;
46158;SDS011;31888;44.512;26.104;2023-07-20T09:41:31;12.88;;;7.10;;
46158;SDS011;31888;44.512;26.104;2023-07-20T09:44:06;12.98;;;6.65;;
46158;SDS011;31888;44.512;26.104;2023-07-20T09:46:41;17.00;;;7.35;;
46158;SDS011;31888;44.512;26.104;2023-07-20T09:49:08;12.50;;;7.50;;
46158;SDS011;31888;44.512;26.104;2023-07-20T09:51:35;12.32;;;7.05;;
46158;SDS011;31888;44.512;26.104;2023-07-20T09:54:00;12.15;;;6.40;;
46158;SDS011;31888;44.512;26.104;2023-07-20T09:56:25;14.00;;;6.60;;
46158;SDS011;31888;44.512;26.104;2023-07-20T09:58:53;14.93;;;7.03;;
46158;SDS011;31888;44.512;26.104;2023-07-20T10:01:17;15.18;;;6.22;;
46158;SDS011;31888;44.512;26.104;2023-07-20T10:03:47;38.72;;;8.15;;
46158;SDS011;31888;44.512;26.104;2023-07-20T10:06:13;14.48;;;6.63;;
46158;SDS011;31888;44.512;26.104;2023-07-20T10:08:39;16.20;;;7.38;;
46158;SDS011;31888;44.512;26.104;2023-07-20T10:11:07;12.63;;;6.70;;
46158;SDS011;31888;44.512;26.104;2023-07-20T10:13:36;8.93;;;6.15;;
46158;SDS011;31888;44.512;26.104;2023-07-20T10:16:03;11.32;;;6.38;;
46158;SDS011;31888;44.512;26.104;2023-07-20T10:18:34;14.63;;;5.88;;
46158;SDS011;31888;44.512;26.104;2023-07-20T10:21:04;12.43;;;5.97;;
46158;SDS011;31888;44.512;26.104;2023-07-20T10:23:34;12.60;;;5.88;;
46158;SDS011;31888;44.512;26.104;2023-07-20T10:25:59;11.15;;;5.97;;
46158;SDS011;31888;44.512;26.104;2023-07-20T10:28:25;11.20;;;5.35;;
46158;SDS011;31888;44.512;26.104;2023-07-20T10:30:49;14.30;;;5.65;;
46158;SDS011;31888;44.512;26.104;2023-07-20T10:33:15;11.93;;;5.35;;
46158;SDS011;31888;44.512;26.104;2023-07-20T10:35:50;10.75;;;5.47;;
46158;SDS011;31888;44.512;26.104;2023-07-20T10:38:14;13.27;;;5.75;;
46158;SDS011;31888;44.512;26.104;2023-07-20T10:40:38;10.32;;;5.20;;
46158;SDS011;31888;44.512;26.104;2023-07-20T10:43:04;11.75;;;5.47;;
46158;SDS011;31888;44.512;26.104;2023-07-20T10:48:13;13.43;;;6.22;;
46158;SDS011;31888;44.512;26.104;2023-07-20T10:50:40;10.15;;;5.63;;
46158;SDS011;31888;44.512;26.104;2023-07-20T10:53:04;11.60;;;5.47;;
46158;SDS011;31888;44.512;26.104;2023-07-20T10:55:33;8.77;;;5.40;;
46158;SDS011;31888;44.512;26.104;2023-07-20T10:58:07;11.52;;;5.32;;
46158;SDS011;31888;44.512;26.104;2023-07-20T11:00:31;10.85;;;5.32;;
46158;SDS011;31888;44.512;26.104;2023-07-20T11:02:55;13.10;;;5.47;;
46158;SDS011;31888;44.512;26.104;2023-07-20T11:05:33;12.02;;;5.13;;
46158;SDS011;31888;44.512;26.104;2023-07-20T11:08:06;9.00;;;4.60;;
46158;SDS011;31888;44.512;26.104;2023-07-20T11:10:33;14.02;;;4.80;;
46158;SDS011;31888;44.512;26.104;2023-07-20T11:13:16;6.85;;;3.92;;
46158;SDS011;31888;44.512;26.104;2023-07-20T11:15:47;11.82;;;4.47;;
46158;SDS011;31888;44.512;26.104;2023-07-20T11:18:25;13.02;;;4.85;;
46158;SDS011;31888;44.512;26.104;2023-07-20T11:20:51;12.27;;;4.43;;
46158;SDS011;31888;44.512;26.104;2023-07-20T11:23:16;14.00;;;4.38;;
46158;SDS011;31888;44.512;26.104;2023-07-20T11:25:39;13.73;;;4.78;;
46158;SDS011;31888;44.512;26.104;2023-07-20T11:28:06;7.47;;;4.35;;
46158;SDS011;31888;44.512;26.104;2023-07-20T11:30:32;9.75;;;4.88;;
46158;SDS011;31888;44.512;26.104;2023-07-20T11:32:57;6.07;;;4.05;;
46158;SDS011;31888;44.512;26.104;2023-07-20T11:35:21;10.18;;;4.35;;
46158;SDS011;31888;44.512;26.104;2023-07-20T11:37:46;9.38;;;4.35;;
46158;SDS011;31888;44.512;26.104;2023-07-20T11:40:10;7.70;;;3.88;;
46158;SDS011;31888;44.512;26.104;2023-07-20T11:42:35;11.43;;;4.07;;
46158;SDS011;31888;44.512;26.104;2023-07-20T11:45:02;8.70;;;4.03;;
46158;SDS011;31888;44.512;26.104;2023-07-20T11:47:28;7.68;;;3.78;;
46158;SDS011;31888;44.512;26.104;2023-07-20T11:49:53;12.77;;;3.65;;
46158;SDS011;31888;44.512;26.104;2023-07-20T11:52:17;11.68;;;4.38;;
46158;SDS011;31888;44.512;26.104;2023-07-20T11:54:42;7.15;;;3.67;;
46158;SDS011;31888;44.512;26.104;2023-07-20T11:57:15;11.98;;;4.93;;
46158;SDS011;31888;44.512;26.104;2023-07-20T11:59:39;11.82;;;4.18;;
46158;SDS011;31888;44.512;26.104;2023-07-20T12:02:16;7.05;;;3.72;;
46158;SDS011;31888;44.512;26.104;2023-07-20T12:04:41;7.75;;;3.95;;
46158;SDS011;31888;44.512;26.104;2023-07-20T12:07:07;10.27;;;4.25;;
46158;SDS011;31888;44.512;26.104;2023-07-20T12:09:30;9.93;;;4.30;;
46158;SDS011;31888;44.512;26.104;2023-07-20T12:12:13;7.72;;;3.50;;
46158;SDS011;31888;44.512;26.104;2023-07-20T12:14:37;7.50;;;3.70;;
46158;SDS011;31888;44.512;26.104;2023-07-20T12:17:01;7.05;;;4.03;;
46158;SDS011;31888;44.512;26.104;2023-07-20T12:19:25;14.07;;;4.50;;
46158;SDS011;31888;44.512;26.104;2023-07-20T12:21:49;7.38;;;4.55;;
46158;SDS011;31888;44.512;26.104;2023-07-20T12:24:13;12.07;;;4.00;;
46158;SDS011;31888;44.512;26.104;2023-07-20T12:26:37;17.23;;;4.40;;
46158;SDS011;31888;44.512;26.104;2023-07-20T12:29:03;8.63;;;3.95;;
46158;SDS011;31888;44.512;26.104;2023-07-20T12:31:27;5.90;;;3.50;;
46158;SDS011;31888;44.512;26.104;2023-07-20T12:33:52;12.02;;;3.90;;
46158;SDS011;31888;44.512;26.104;2023-07-20T12:36:17;10.13;;;4.32;;
46158;SDS011;31888;44.512;26.104;2023-07-20T12:38:41;9.02;;;4.72;;
46158;SDS011;31888;44.512;26.104;2023-07-20T12:41:05;8.95;;;4.15;;
46158;SDS011;31888;44.512;26.104;2023-07-20T12:43:29;13.30;;;4.47;;
46158;SDS011;31888;44.512;26.104;2023-07-20T12:45:55;8.40;;;4.55;;
46158;SDS011;31888;44.512;26.104;2023-07-20T12:48:19;10.43;;;4.68;;
46158;SDS011;31888;44.512;26.104;2023-07-20T12:50:43;12.45;;;3.90;;
46158;SDS011;31888;44.512;26.104;2023-07-20T12:53:07;6.97;;;3.95;;
46158;SDS011;31888;44.512;26.104;2023-07-20T12:55:33;12.00;;;4.20;;
46158;SDS011;31888;44.512;26.104;2023-07-20T12:57:57;10.50;;;4.15;;
46158;SDS011;31888;44.512;26.104;2023-07-20T13:00:21;10.73;;;3.90;;
46158;SDS011;31888;44.512;26.104;2023-07-20T13:02:46;11.57;;;4.15;;
46158;SDS011;31888;44.512;26.104;2023-07-20T13:05:10;8.73;;;3.47;;
46158;SDS011;31888;44.512;26.104;2023-07-20T13:07:35;8.38;;;3.75;;
46158;SDS011;31888;44.512;26.104;2023-07-20T13:10:07;9.52;;;4.05;;
46158;SDS011;31888;44.512;26.104;2023-07-20T13:12:33;12.23;;;4.50;;
46158;SDS011;31888;44.512;26.104;2023-07-20T13:14:58;9.35;;;3.72;;
46158;SDS011;31888;44.512;26.104;2023-07-20T13:17:24;12.05;;;3.67;;
46158;SDS011;31888;44.512;26.104;2023-07-20T13:19:49;9.07;;;4.00;;
46158;SDS011;31888;44.512;26.104;2023-07-20T13:22:13;10.45;;;4.55;;
46158;SDS011;31888;44.512;26.104;2023-07-20T13:24:37;8.27;;;3.45;;
46158;SDS011;31888;44.512;26.104;2023-07-20T13:27:01;8.73;;;4.35;;
46158;SDS011;31888;44.512;26.104;2023-07-20T13:29:26;9.02;;;3.92;;
46158;SDS011;31888;44.512;26.104;2023-07-20T13:31:50;6.03;;;3.28;;
46158;SDS011;31888;44.512;26.104;2023-07-20T13:34:16;10.00;;;3.63;;
46158;SDS011;31888;44.512;26.104;2023-07-20T13:36:42;7.43;;;3.70;;
46158;SDS011;31888;44.512;26.104;2023-07-20T13:39:06;12.55;;;4.00;;
46158;SDS011;31888;44.512;26.104;2023-07-20T13:41:30;9.20;;;3.47;;
46158;SDS011;31888;44.512;26.104;2023-07-20T13:43:56;8.43;;;3.60;;
46158;SDS011;31888;44.512;26.104;2023-07-20T13:46:20;10.70;;;3.95;;
46158;SDS011;31888;44.512;26.104;2023-07-20T13:49:04;9.50;;;3.42;;
46158;SDS011;31888;44.512;26.104;2023-07-20T13:51:34;37.75;;;5.70;;
46158;SDS011;31888;44.512;26.104;2023-07-20T13:53:59;11.68;;;4.05;;
46158;SDS011;31888;44.512;26.104;2023-07-20T13:56:43;7.97;;;3.10;;
46158;SDS011;31888;44.512;26.104;2023-07-20T13:59:07;8.73;;;3.90;;
46158;SDS011;31888;44.512;26.104;2023-07-20T14:01:31;11.93;;;4.13;;
46158;SDS011;31888;44.512;26.104;2023-07-20T14:03:59;10.30;;;4.85;;
46158;SDS011;31888;44.512;26.104;2023-07-20T14:06:27;16.85;;;4.72;;
46158;SDS011;31888;44.512;26.104;2023-07-20T14:08:53;17.63;;;5.22;;
46158;SDS011;31888;44.512;26.104;2023-07-20T14:11:18;15.43;;;4.97;;
46158;SDS011;31888;44.512;26.104;2023-07-20T14:13:45;11.23;;;4.30;;